Time;durP1;ratioP1;P1;durP2;ratioP2;P2;SDS_P1;SDS_P2;PMS_P1;PMS_P2;Temp;Humidity;BMP_temperature;BMP_pressure;BME280_temperature;BME280_humidity;BME280_pressure;Samples;Min_cycle;Max_cycle;Signal;HPM_P1;HPM_P2
2024/01/10 00:01:08;;;;;;;115.05;54.15;;;12.50;53.60;;;;;;4885541;28;89266;-77
2024/01/10 00:03:34;;;;;;;115.75;54.28;;;12.40;53.60;;;;;;4882330;28;89360;-77
2024/01/10 00:06:00;;;;;;;115.28;53.90;;;12.40;53.70;;;;;;4889441;28;89230;-77
2024/01/10 00:08:26;;;;;;;116.03;54.60;;;12.40;53.70;;;;;;4886721;28;89778;-78
2024/01/10 00:10:54;;;;;;;114.88;54.45;;;12.30;53.70;;;;;;4881513;28;90047;-77
2024/01/10 00:13:21;;;;;;;115.75;54.33;;;12.30;53.70;;;;;;4885011;28;89405;-78
2024/01/10 00:15:47;;;;;;;116.78;54.75;;;12.30;53.60;;;;;;4885967;28;93312;-77
2024/01/10 00:18:12;;;;;;;116.03;54.78;;;12.30;53.60;;;;;;4883293;28;90663;-77
2024/01/10 00:20:38;;;;;;;115.47;54.30;;;12.20;53.60;;;;;;4884247;28;94183;-77
2024/01/10 00:23:04;;;;;;;115.05;54.28;;;12.20;53.60;;;;;;4887000;28;89053;-77
2024/01/10 00:25:30;;;;;;;116.55;55.03;;;12.20;53.60;;;;;;4885711;28;90735;-77
2024/01/10 00:27:55;;;;;;;117.07;55.13;;;12.20;53.60;;;;;;4881705;28;89895;-77
2024/01/10 00:30:21;;;;;;;115.97;54.38;;;12.10;54.10;;;;;;4884719;28;89459;-74
2024/01/10 00:32:47;;;;;;;116.60;54.70;;;12.10;53.60;;;;;;4883461;28;88511;-75
2024/01/10 00:35:12;;;;;;;115.60;54.80;;;12.10;53.60;;;;;;4885376;28;89442;-75
2024/01/10 00:37:38;;;;;;;114.65;54.25;;;12.10;53.70;;;;;;4886167;28;93839;-77
2024/01/10 00:40:04;;;;;;;114.03;54.10;;;12.00;53.60;;;;;;4886149;28;90009;-78
2024/01/10 00:42:30;;;;;;;116.13;55.05;;;12.00;53.70;;;;;;4886976;28;89035;-84
2024/01/10 00:44:56;;;;;;;115.13;54.92;;;12.00;54.30;;;;;;4886923;28;89229;-83
2024/01/10 00:47:21;;;;;;;114.68;54.53;;;12.00;53.80;;;;;;4889044;28;89458;-81
2024/01/10 00:49:47;;;;;;;114.90;54.80;;;12.00;53.70;;;;;;4901102;28;89557;-85
2024/01/10 00:52:13;;;;;;;113.70;54.15;;;11.90;53.70;;;;;;4892729;28;89321;-86
2024/01/10 00:54:38;;;;;;;113.55;54.10;;;11.90;53.70;;;;;;4887417;28;89331;-85
2024/01/10 00:57:04;;;;;;;114.78;54.95;;;11.90;53.70;;;;;;4887701;28;89146;-84
2024/01/10 00:59:30;;;;;;;113.57;54.40;;;11.90;53.70;;;;;;4883735;28;89047;-84
2024/01/10 01:01:55;;;;;;;113.50;54.22;;;11.90;53.80;;;;;;4885923;28;88987;-83
2024/01/10 01:04:21;;;;;;;116.28;54.75;;;11.80;53.70;;;;;;4885633;28;91253;-84
2024/01/10 01:06:47;;;;;;;114.45;54.60;;;11.80;53.70;;;;;;4881951;28;92296;-83
2024/01/10 01:09:15;;;;;;;115.22;54.83;;;11.80;53.70;;;;;;4885134;28;89760;-82
2024/01/10 01:11:41;;;;;;;115.65;54.75;;;11.80;53.80;;;;;;4882471;28;89935;-75
2024/01/10 01:14:07;;;;;;;113.78;54.50;;;11.80;53.80;;;;;;4884510;28;90339;-76
2024/01/10 01:16:33;;;;;;;116.07;54.10;;;11.70;53.80;;;;;;4884029;28;90521;-74
2024/01/10 01:18:59;;;;;;;112.55;54.13;;;11.70;53.90;;;;;;4884413;28;89730;-75
2024/01/10 01:21:24;;;;;;;113.95;54.40;;;11.70;53.80;;;;;;4880916;28;89068;-76
2024/01/10 01:23:50;;;;;;;114.05;54.30;;;11.70;53.90;;;;;;4885371;28;89650;-75
2024/01/10 01:26:16;;;;;;;114.70;54.45;;;11.60;54.50;;;;;;4889826;28;91606;-75
2024/01/10 01:28:41;;;;;;;116.05;54.65;;;11.60;53.80;;;;;;4891495;28;90072;-75
2024/01/10 01:31:07;;;;;;;113.88;54.25;;;11.60;53.90;;;;;;4890634;28;88867;-76
2024/01/10 01:33:32;;;;;;;113.00;53.92;;;11.60;53.80;;;;;;4887617;28;91288;-75
2024/01/10 01:35:58;;;;;;;113.88;54.10;;;11.60;53.90;;;;;;4887374;28;89188;-75
2024/01/10 01:38:24;;;;;;;113.35;53.75;;;11.60;53.90;;;;;;4886594;28;89891;-76
2024/01/10 01:40:50;;;;;;;112.38;53.83;;;11.60;53.90;;;;;;4883420;28;90671;-85
2024/01/10 01:43:35;;;;;;;114.93;54.30;;;11.50;53.90;;;;;;4883382;28;89601;-84
2024/01/10 01:46:02;;;;;;;113.75;54.15;;;11.50;53.90;;;;;;4880762;28;90210;-87
2024/01/10 01:48:28;;;;;;;114.68;54.17;;;11.50;53.90;;;;;;4881467;28;88845;-85
2024/01/10 01:51:02;;;;;;;113.53;54.33;;;11.50;54.00;;;;;;4881554;28;89285;-83
2024/01/10 01:53:31;;;;;;;113.75;54.10;;;11.50;54.10;;;;;;4895114;28;93371;-86
2024/01/10 01:55:58;;;;;;;112.72;53.72;;;11.40;53.90;;;;;;4881777;28;90742;-78
2024/01/10 01:58:24;;;;;;;111.85;53.60;;;11.40;54.10;;;;;;4882139;28;89255;-77
2024/01/10 02:00:51;;;;;;;114.53;54.35;;;11.50;54.00;;;;;;4881551;28;89608;-85
2024/01/10 02:03:17;;;;;;;112.93;54.28;;;11.40;54.10;;;;;;4874938;28;95452;-84
2024/01/10 02:05:42;;;;;;;112.45;53.88;;;11.40;54.10;;;;;;4880960;28;89873;-84
2024/01/10 02:08:08;;;;;;;114.22;54.60;;;11.30;54.10;;;;;;4877391;28;88956;-84
2024/01/10 02:10:34;;;;;;;113.13;54.13;;;11.40;54.10;;;;;;4881430;28;88359;-83
2024/01/10 02:13:01;;;;;;;113.38;54.45;;;11.40;54.10;;;;;;4884065;28;89898;-84
2024/01/10 02:15:27;;;;;;;114.55;54.30;;;11.30;54.10;;;;;;4882630;28;91460;-76
2024/01/10 02:17:52;;;;;;;112.30;53.95;;;11.30;54.10;;;;;;4876002;28;90860;-84
2024/01/10 02:20:18;;;;;;;111.70;53.88;;;11.30;54.10;;;;;;4875364;28;89738;-83
2024/01/10 02:22:44;;;;;;;112.47;54.10;;;11.30;54.10;;;;;;4880270;28;89605;-83
2024/01/10 02:25:11;;;;;;;113.18;53.92;;;11.30;54.10;;;;;;4883283;28;88938;-78
2024/01/10 02:27:37;;;;;;;113.50;54.00;;;11.20;54.20;;;;;;4882605;28;89036;-79
2024/01/10 02:30:04;;;;;;;113.22;53.97;;;11.20;54.30;;;;;;4880054;28;89167;-79
2024/01/10 02:32:30;;;;;;;111.20;53.72;;;11.20;54.20;;;;;;4877078;28;90958;-78
2024/01/10 02:34:56;;;;;;;114.20;54.13;;;11.20;54.10;;;;;;4886672;28;90616;-78
2024/01/10 02:37:22;;;;;;;114.28;54.33;;;11.20;54.20;;;;;;4882952;28;89109;-78
2024/01/10 02:39:47;;;;;;;114.72;54.50;;;11.20;54.30;;;;;;4886382;28;88979;-78
2024/01/10 02:42:13;;;;;;;113.25;54.47;;;11.20;54.20;;;;;;4883885;28;91150;-82
2024/01/10 02:44:39;;;;;;;111.93;53.95;;;11.20;54.10;;;;;;4887762;28;93731;-81
2024/01/10 02:47:06;;;;;;;113.55;53.75;;;11.20;54.20;;;;;;4882563;28;89024;-83
2024/01/10 02:49:32;;;;;;;112.43;53.97;;;11.10;54.20;;;;;;4889192;28;89182;-81
2024/01/10 02:51:58;;;;;;;111.75;53.72;;;11.00;54.30;;;;;;4883709;28;91027;-80
2024/01/10 02:54:23;;;;;;;112.90;54.05;;;11.10;54.40;;;;;;4887619;28;89036;-82
2024/01/10 02:56:49;;;;;;;112.80;54.30;;;11.10;54.40;;;;;;4881820;28;88622;-82
2024/01/10 02:59:15;;;;;;;113.63;53.97;;;11.10;54.40;;;;;;4891950;28;87876;-82
2024/01/10 03:01:40;;;;;;;113.35;54.28;;;11.10;54.30;;;;;;4881032;28;89363;-82
2024/01/10 03:04:06;;;;;;;112.28;54.25;;;11.00;54.40;;;;;;4886868;28;92706;-83
2024/01/10 03:06:32;;;;;;;112.00;54.00;;;11.00;54.80;;;;;;4884470;28;89864;-84
2024/01/10 03:08:57;;;;;;;111.55;53.80;;;11.00;54.40;;;;;;4884747;28;88479;-85
2024/01/10 03:11:23;;;;;;;111.55;53.67;;;11.00;54.50;;;;;;4879187;28;92127;-84
2024/01/10 03:13:52;;;;;;;111.55;53.80;;;11.00;54.40;;;;;;4886765;28;91642;-81
2024/01/10 03:16:18;;;;;;;112.75;54.45;;;10.90;54.30;;;;;;4879765;28;91220;-80
2024/01/10 03:18:44;;;;;;;112.07;53.88;;;10.90;54.40;;;;;;4883480;28;89459;-81
2024/01/10 03:21:09;;;;;;;112.72;54.38;;;10.90;54.40;;;;;;4880301;28;89518;-81
2024/01/10 03:23:35;;;;;;;112.28;54.45;;;10.90;54.40;;;;;;4885871;28;88593;-81
2024/01/10 03:26:01;;;;;;;112.30;54.28;;;10.90;54.40;;;;;;4883945;28;89587;-80
2024/01/10 03:28:26;;;;;;;112.32;54.08;;;10.80;54.50;;;;;;4887350;28;89529;-72
2024/01/10 03:30:52;;;;;;;113.18;53.78;;;10.90;54.40;;;;;;4881850;28;90459;-76
2024/01/10 03:33:18;;;;;;;111.88;54.17;;;10.90;54.40;;;;;;4880341;28;95651;-77
2024/01/10 03:35:43;;;;;;;111.68;53.63;;;10.80;54.40;;;;;;4879623;28;89655;-77
2024/01/10 03:38:09;;;;;;;111.72;53.90;;;10.80;54.40;;;;;;4882013;28;89213;-77
2024/01/10 03:40:35;;;;;;;111.50;54.25;;;10.80;54.40;;;;;;4881024;28;90000;-77
2024/01/10 03:43:00;;;;;;;112.50;54.20;;;10.80;54.40;;;;;;4886523;28;89053;-77
2024/01/10 03:45:26;;;;;;;112.00;53.83;;;10.80;54.50;;;;;;4882870;28;89127;-77
2024/01/10 03:47:52;;;;;;;111.28;53.85;;;10.80;54.40;;;;;;4883994;28;89382;-78
2024/01/10 03:50:19;;;;;;;111.65;53.70;;;10.70;54.40;;;;;;4882994;28;89888;-78
2024/01/10 03:52:45;;;;;;;112.38;53.88;;;10.70;54.50;;;;;;4879669;28;94478;-78
2024/01/10 03:55:12;;;;;;;110.85;53.45;;;10.80;54.60;;;;;;4883138;28;91598;-78
2024/01/10 03:57:39;;;;;;;111.25;53.72;;;10.70;54.60;;;;;;4881209;28;89642;-81
2024/01/10 04:00:06;;;;;;;111.57;53.95;;;10.70;54.60;;;;;;4880026;28;94952;-84
2024/01/10 04:02:32;;;;;;;112.13;53.88;;;10.80;54.70;;;;;;4880798;28;89137;-84
2024/01/10 04:04:58;;;;;;;111.32;53.58;;;10.70;54.70;;;;;;4884127;28;88799;-84
2024/01/10 04:07:25;;;;;;;111.63;53.75;;;10.70;54.80;;;;;;4880940;28;90074;-82
2024/01/10 04:09:51;;;;;;;110.75;53.58;;;10.70;54.80;;;;;;4885831;28;89192;-83
2024/01/10 04:12:17;;;;;;;111.15;53.35;;;10.70;55.00;;;;;;4877950;28;88494;-74
2024/01/10 04:14:42;;;;;;;111.22;53.53;;;10.70;55.10;;;;;;4881572;28;89673;-73
2024/01/10 04:17:09;;;;;;;112.85;53.88;;;10.70;55.10;;;;;;4878580;28;89171;-75
2024/01/10 04:19:34;;;;;;;110.75;53.55;;;10.70;55.10;;;;;;4879054;28;93375;-79
2024/01/10 04:22:00;;;;;;;113.10;54.40;;;10.70;55.10;;;;;;4880444;28;90208;-79
2024/01/10 04:24:26;;;;;;;111.43;53.83;;;10.70;54.90;;;;;;4880962;28;89742;-79
2024/01/10 04:26:51;;;;;;;112.90;54.28;;;10.70;54.40;;;;;;4886988;28;89997;-79
2024/01/10 04:29:17;;;;;;;110.88;53.67;;;10.80;54.20;;;;;;4877000;28;91949;-80
2024/01/10 04:31:43;;;;;;;112.75;54.00;;;10.80;53.90;;;;;;4880725;28;89111;-80
2024/01/10 04:34:08;;;;;;;113.20;53.95;;;10.90;53.60;;;;;;4883056;28;90152;-80
2024/01/10 04:36:34;;;;;;;117.78;54.40;;;10.90;53.50;;;;;;4886601;28;88473;-79
2024/01/10 04:39:00;;;;;;;111.05;53.70;;;10.90;53.30;;;;;;4888150;28;91120;-80
2024/01/10 04:41:26;;;;;;;111.25;53.75;;;10.90;53.40;;;;;;4880966;28;89808;-79
2024/01/10 04:43:52;;;;;;;110.95;54.03;;;10.90;53.30;;;;;;4879612;28;90512;-79
2024/01/10 04:46:17;;;;;;;113.15;54.50;;;10.90;53.20;;;;;;4885166;28;89566;-83
2024/01/10 04:48:43;;;;;;;110.55;53.58;;;11.00;53.30;;;;;;4880142;28;89631;-84
2024/01/10 04:51:09;;;;;;;112.00;54.20;;;11.00;53.30;;;;;;4882357;28;88706;-85
2024/01/10 04:53:34;;;;;;;110.90;53.92;;;11.00;53.40;;;;;;4883467;28;89193;-84
2024/01/10 04:56:00;;;;;;;111.10;53.72;;;11.00;53.50;;;;;;4889281;28;89057;-87
2024/01/10 04:58:26;;;;;;;110.78;53.85;;;11.00;53.50;;;;;;4890597;28;91366;-86
2024/01/10 05:00:52;;;;;;;110.45;53.47;;;11.00;53.40;;;;;;4886159;28;90413;-86
2024/01/10 05:03:17;;;;;;;112.22;53.80;;;11.00;53.40;;;;;;4883948;28;88812;-80
2024/01/10 05:05:43;;;;;;;112.35;54.40;;;10.90;53.20;;;;;;4884747;28;88669;-79
2024/01/10 05:08:09;;;;;;;112.65;54.22;;;10.90;53.40;;;;;;4882550;28;92164;-81
2024/01/10 05:10:34;;;;;;;111.47;54.17;;;10.90;53.20;;;;;;4886534;28;91371;-80
2024/01/10 05:13:00;;;;;;;111.55;53.83;;;11.00;53.20;;;;;;4886558;28;88771;-81
2024/01/10 05:15:26;;;;;;;113.30;54.13;;;11.00;53.10;;;;;;4881064;28;89171;-81
2024/01/10 05:17:52;;;;;;;110.80;53.13;;;11.00;53.10;;;;;;4885016;28;90548;-79
2024/01/10 05:20:18;;;;;;;112.43;53.30;;;11.00;53.10;;;;;;4879792;28;89725;-80
2024/01/10 05:22:44;;;;;;;112.13;54.22;;;11.00;53.10;;;;;;4883282;28;89444;-81
2024/01/10 05:25:10;;;;;;;111.90;53.92;;;11.00;53.00;;;;;;4883791;28;88150;-81
2024/01/10 05:27:36;;;;;;;112.90;53.20;;;11.00;53.10;;;;;;4883645;28;91294;-80
2024/01/10 05:30:01;;;;;;;110.05;53.17;;;11.00;53.10;;;;;;4880979;28;90253;-80
2024/01/10 05:32:27;;;;;;;112.28;53.83;;;11.00;53.20;;;;;;4881628;28;90096;-81
2024/01/10 05:34:54;;;;;;;111.20;53.65;;;11.00;53.10;;;;;;4880318;28;89689;-81
2024/01/10 05:37:19;;;;;;;111.35;54.13;;;10.90;53.10;;;;;;4882486;28;90339;-81
2024/01/10 05:39:45;;;;;;;112.72;54.15;;;11.00;53.20;;;;;;4887184;28;89415;-82
2024/01/10 05:42:11;;;;;;;111.90;54.08;;;11.00;53.20;;;;;;4886064;28;89107;-80
2024/01/10 05:44:36;;;;;;;111.70;54.08;;;10.90;53.20;;;;;;4882365;28;93779;-80
2024/01/10 05:47:02;;;;;;;110.35;53.22;;;11.00;53.30;;;;;;4882978;28;89477;-81
2024/01/10 05:49:28;;;;;;;111.05;53.50;;;11.00;53.20;;;;;;4883457;28;89785;-79
2024/01/10 05:51:54;;;;;;;111.38;53.80;;;10.90;53.00;;;;;;4883994;28;89273;-79
2024/01/10 05:54:20;;;;;;;111.35;53.90;;;11.00;53.00;;;;;;4890469;28;91696;-80
2024/01/10 05:56:45;;;;;;;112.78;53.72;;;11.00;53.00;;;;;;4882843;28;91508;-79
2024/01/10 05:59:11;;;;;;;110.50;53.67;;;11.00;53.10;;;;;;4880915;28;90534;-80
2024/01/10 06:01:40;;;;;;;111.57;54.15;;;11.00;53.10;;;;;;4880459;28;89387;-81
2024/01/10 06:04:06;;;;;;;110.68;54.00;;;11.00;53.20;;;;;;4885310;28;89213;-80
2024/01/10 06:06:32;;;;;;;110.18;53.22;;;11.00;53.30;;;;;;4883244;28;88827;-78
2024/01/10 06:08:58;;;;;;;111.28;53.22;;;10.90;53.40;;;;;;4884002;28;89325;-78
2024/01/10 06:11:24;;;;;;;110.15;53.00;;;10.90;53.40;;;;;;4880743;28;89124;-78
2024/01/10 06:13:49;;;;;;;111.07;53.75;;;10.90;53.50;;;;;;4888550;28;88740;-78
2024/01/10 06:16:16;;;;;;;111.90;53.72;;;11.00;53.50;;;;;;4882840;28;89191;-77
2024/01/10 06:18:42;;;;;;;112.43;53.90;;;10.90;53.80;;;;;;4885651;28;89149;-77
2024/01/10 06:21:08;;;;;;;111.80;53.65;;;10.90;54.30;;;;;;4882460;28;90095;-78
2024/01/10 06:23:33;;;;;;;112.97;53.85;;;10.80;54.50;;;;;;4882304;28;89287;-79
2024/01/10 06:25:59;;;;;;;115.20;54.85;;;10.80;54.90;;;;;;4883081;28;89284;-81
2024/01/10 06:28:25;;;;;;;114.97;54.20;;;10.80;54.90;;;;;;4884509;28;88456;-78
2024/01/10 06:30:50;;;;;;;112.57;54.10;;;10.80;54.90;;;;;;4878443;28;90115;-76
2024/01/10 06:33:16;;;;;;;113.03;53.97;;;10.80;54.90;;;;;;4882797;28;89049;-76
2024/01/10 06:35:45;;;;;;;122.28;57.78;;;10.70;54.50;;;;;;4887852;28;89958;-76
2024/01/10 06:38:11;;;;;;;125.60;59.35;;;10.70;54.70;;;;;;4889809;28;92426;-77
2024/01/10 06:40:36;;;;;;;122.82;57.78;;;10.70;54.60;;;;;;4883502;28;89015;-76
2024/01/10 06:43:08;;;;;;;118.90;56.53;;;10.70;54.60;;;;;;4884876;28;89535;-76
2024/01/10 06:45:34;;;;;;;119.18;57.33;;;10.70;54.90;;;;;;4885218;28;91891;-76
2024/01/10 06:47:59;;;;;;;117.95;56.65;;;10.70;54.80;;;;;;4877192;28;90550;-75
2024/01/10 06:50:25;;;;;;;118.28;56.30;;;10.70;54.70;;;;;;4906953;28;88989;-78
2024/01/10 06:52:51;;;;;;;124.22;56.50;;;10.90;56.20;;;;;;4911817;28;89037;-78
2024/01/10 06:55:18;;;;;;;121.40;56.50;;;11.00;54.90;;;;;;4896014;28;93835;-75
2024/01/10 06:57:44;;;;;;;116.60;55.83;;;11.10;54.50;;;;;;4879400;28;89646;-73
2024/01/10 07:00:10;;;;;;;118.65;56.53;;;11.20;54.40;;;;;;4881116;28;89739;-74
2024/01/10 07:02:39;;;;;;;116.88;55.95;;;11.30;54.00;;;;;;4881187;28;88305;-75
2024/01/10 07:05:09;;;;;;;119.25;56.35;;;11.30;54.50;;;;;;4880534;28;89897;-75
2024/01/10 07:07:35;;;;;;;129.45;64.85;;;11.30;54.00;;;;;;4881606;28;91308;-75
2024/01/10 07:10:04;;;;;;;128.27;61.58;;;11.30;54.20;;;;;;4886750;28;90108;-86
2024/01/10 07:12:31;;;;;;;126.22;59.85;;;11.30;54.10;;;;;;4889420;28;90131;-82
2024/01/10 07:14:57;;;;;;;123.85;60.03;;;11.30;54.80;;;;;;4889015;28;89157;-81
2024/01/10 07:17:22;;;;;;;122.63;58.95;;;11.30;54.30;;;;;;4887731;28;93654;-85
2024/01/10 07:19:48;;;;;;;128.23;58.90;;;11.40;54.30;;;;;;4889525;28;89389;-85
2024/01/10 07:22:14;;;;;;;123.47;59.53;;;11.50;54.20;;;;;;4886672;28;90545;-84
2024/01/10 07:24:40;;;;;;;118.88;58.35;;;11.60;54.30;;;;;;4885418;28;89101;-86
2024/01/10 07:27:06;;;;;;;125.93;58.50;;;11.50;54.40;;;;;;4880194;28;88605;-79
2024/01/10 07:29:32;;;;;;;126.03;58.88;;;11.60;55.10;;;;;;4883061;28;91397;-74
2024/01/10 07:31:58;;;;;;;122.00;57.58;;;11.60;54.70;;;;;;4876094;28;89813;-76
2024/01/10 07:34:23;;;;;;;121.03;56.65;;;11.70;54.50;;;;;;4895030;23;92489;-69
2024/01/10 07:36:49;;;;;;;121.38;56.58;;;11.70;54.80;;;;;;4871096;28;90171;-71
2024/01/10 07:39:21;;;;;;;119.07;56.42;;;11.80;54.80;;;;;;4884293;28;89278;-70
2024/01/10 07:41:47;;;;;;;;;;;11.90;54.70;;;;;;4874799;28;89086;-69
2024/01/10 07:44:12;;;;;;;118.78;55.88;;;11.90;54.80;;;;;;4878565;28;89879;-69
2024/01/10 07:46:38;;;;;;;120.43;56.72;;;11.90;55.20;;;;;;4882176;28;89733;-70
2024/01/10 07:49:05;;;;;;;117.85;55.95;;;11.90;55.30;;;;;;4885660;28;89069;-72
2024/01/10 07:51:34;;;;;;;120.95;55.95;;;11.90;55.50;;;;;;4908299;23;89948;-39
2024/01/10 07:53:59;;;;;;;123.25;56.42;;;11.90;55.80;;;;;;4913427;23;90575;-65
2024/01/10 07:56:25;;;;;;;121.70;56.55;;;12.10;55.80;;;;;;4894372;28;89605;-71
2024/01/10 07:58:51;;;;;;;122.55;56.50;;;12.30;55.50;;;;;;4900356;28;90611;-73
2024/01/10 08:01:18;;;;;;;121.05;56.75;;;12.40;55.30;;;;;;4875956;28;90326;-69
2024/01/10 08:03:43;;;;;;;125.32;58.15;;;12.50;54.70;;;;;;4890500;28;94929;-71
2024/01/10 08:06:12;;;;;;;122.78;58.33;;;12.60;54.50;;;;;;4893736;28;89885;-73
2024/01/10 08:08:37;;;;;;;124.90;57.75;;;12.50;53.90;;;;;;4907673;28;90463;-70
2024/01/10 08:11:03;;;;;;;123.13;57.47;;;12.60;53.80;;;;;;4902536;28;89321;-70
2024/01/10 08:13:29;;;;;;;124.07;56.83;;;12.70;54.00;;;;;;4898237;28;90930;-71
2024/01/10 08:15:55;;;;;;;122.47;57.40;;;12.70;53.70;;;;;;4894337;28;88831;-69
2024/01/10 08:18:20;;;;;;;122.93;57.83;;;12.80;53.70;;;;;;4892419;28;91509;-70
2024/01/10 08:20:46;;;;;;;121.93;57.25;;;12.90;53.50;;;;;;4885892;28;90027;-68
2024/01/10 08:23:12;;;;;;;126.25;57.03;;;12.90;53.20;;;;;;4890687;28;91692;-70
2024/01/10 08:25:38;;;;;;;123.68;57.72;;;12.90;53.20;;;;;;4902163;28;90387;-71
2024/01/10 08:28:04;;;;;;;122.07;56.80;;;12.90;52.70;;;;;;4897113;28;89718;-71
2024/01/10 08:30:29;;;;;;;122.25;56.90;;;13.00;52.50;;;;;;4894197;28;89215;-70
2024/01/10 08:32:55;;;;;;;121.78;57.15;;;12.90;52.60;;;;;;4889876;28;89724;-70
2024/01/10 08:35:21;;;;;;;122.13;56.65;;;12.90;52.70;;;;;;4897435;28;90497;-70
2024/01/10 08:37:46;;;;;;;123.68;57.08;;;13.00;53.20;;;;;;4890607;28;89412;-72
2024/01/10 08:40:14;;;;;;;121.60;56.55;;;13.00;53.10;;;;;;4891752;28;89066;-72
2024/01/10 08:42:41;;;;;;;120.82;56.38;;;13.00;53.50;;;;;;4890465;28;90361;-71
2024/01/10 08:45:12;;;;;;;122.05;57.10;;;13.00;53.60;;;;;;4885305;28;90809;-69
2024/01/10 08:47:38;;;;;;;127.53;57.63;;;13.00;54.00;;;;;;4887738;28;91240;-73
2024/01/10 08:50:08;;;;;;;125.15;59.80;;;12.90;53.70;;;;;;4885233;28;90951;-70
2024/01/10 08:52:35;;;;;;;126.40;61.25;;;12.90;53.70;;;;;;4877845;28;90787;-68
2024/01/10 08:55:02;;;;;;;125.97;61.42;;;13.00;53.40;;;;;;4858284;28;93738;-69
2024/01/10 08:57:27;;;;;;;124.43;60.28;;;13.10;52.60;;;;;;4882636;28;89528;-71
2024/01/10 08:59:53;;;;;;;124.53;60.00;;;13.20;51.80;;;;;;4878615;28;90276;-70
2024/01/10 09:02:19;;;;;;;125.03;59.90;;;13.20;51.30;;;;;;4869847;28;90412;-71
2024/01/10 09:04:45;;;;;;;126.60;59.35;;;13.30;51.30;;;;;;4863299;28;90233;-64
2024/01/10 09:07:10;;;;;;;126.18;59.35;;;13.30;51.10;;;;;;4864138;28;90877;-68
2024/01/10 09:09:36;;;;;;;126.78;59.65;;;13.30;51.30;;;;;;4875500;28;90306;-70
2024/01/10 09:12:03;;;;;;;128.98;59.45;;;13.40;51.50;;;;;;4863980;28;90523;-70
2024/01/10 09:14:28;;;;;;;127.38;58.83;;;13.50;51.50;;;;;;4872621;28;91824;-70
2024/01/10 09:16:54;;;;;;;125.07;58.75;;;13.50;51.10;;;;;;4866745;28;90551;-69
2024/01/10 09:19:20;;;;;;;123.25;57.75;;;13.60;51.00;;;;;;4872088;28;91145;-71
2024/01/10 09:21:45;;;;;;;123.75;58.17;;;13.60;50.90;;;;;;4868713;28;90355;-69
2024/01/10 09:24:14;;;;;;;125.38;58.92;;;13.50;51.00;;;;;;4885267;23;91137;-77
2024/01/10 09:26:40;;;;;;;126.22;58.75;;;13.60;51.20;;;;;;4880791;28;90654;-76
2024/01/10 09:29:06;;;;;;;124.85;58.80;;;13.60;51.20;;;;;;4886675;28;88652;-83
2024/01/10 09:31:32;;;;;;;123.53;58.58;;;13.60;51.10;;;;;;4880043;28;93358;-81
2024/01/10 09:33:58;;;;;;;124.28;58.95;;;13.60;51.40;;;;;;4875511;28;92280;-78
2024/01/10 09:36:24;;;;;;;124.78;60.15;;;13.60;51.20;;;;;;4876751;28;95087;-76
2024/01/10 09:38:50;;;;;;;131.40;60.28;;;13.50;51.30;;;;;;4880268;28;89484;-76
2024/01/10 09:41:16;;;;;;;127.25;60.28;;;13.60;50.40;;;;;;4878911;28;92814;-78
2024/01/10 09:43:42;;;;;;;126.40;60.40;;;13.60;50.10;;;;;;4880524;28;89590;-79
2024/01/10 09:46:10;;;;;;;125.85;59.58;;;13.70;49.80;;;;;;4881956;28;90726;-81
2024/01/10 09:48:35;;;;;;;126.43;59.00;;;13.80;49.40;;;;;;4885980;28;90119;-76
2024/01/10 09:51:01;;;;;;;126.80;58.88;;;13.90;49.30;;;;;;4882431;28;89963;-77
2024/01/10 09:53:27;;;;;;;123.82;58.30;;;14.00;49.10;;;;;;4881496;28;90766;-75
2024/01/10 09:55:57;;;;;;;128.23;58.97;;;14.10;48.90;;;;;;4879786;28;90104;-76
2024/01/10 09:58:26;;;;;;;126.03;59.75;;;14.10;48.90;;;;;;4876524;28;90793;-77
2024/01/10 10:00:52;;;;;;;128.88;58.90;;;14.20;49.00;;;;;;4878293;28;90827;-79
2024/01/10 10:03:19;;;;;;;126.75;58.75;;;14.20;50.00;;;;;;4886091;28;94060;-80
2024/01/10 10:05:45;;;;;;;127.88;58.53;;;14.30;49.90;;;;;;4884504;28;89509;-80
2024/01/10 10:08:14;;;;;;;127.80;58.40;;;14.40;49.60;;;;;;4881237;28;89551;-80
2024/01/10 10:10:43;;;;;;;126.55;58.92;;;14.50;49.60;;;;;;4885981;28;91012;-80
2024/01/10 10:13:12;;;;;;;128.00;58.33;;;14.40;49.10;;;;;;4879157;28;89780;-77
2024/01/10 10:15:38;;;;;;;124.57;57.83;;;14.40;48.90;;;;;;4903121;23;90603;-36
2024/01/10 10:18:04;;;;;;;126.22;57.95;;;14.30;49.40;;;;;;4905734;23;89206;-70
2024/01/10 10:20:36;;;;;;;126.32;57.92;;;14.40;49.20;;;;;;4898818;28;92551;-71
2024/01/10 10:23:01;;;;;;;124.07;57.35;;;14.40;49.50;;;;;;4904147;28;89951;-73
2024/01/10 10:25:35;;;;;;;125.43;57.70;;;14.50;49.50;;;;;;4897238;28;92197;-73
2024/01/10 10:28:03;;;;;;;127.72;57.42;;;14.60;49.50;;;;;;4893835;28;89987;-66
2024/01/10 10:30:30;;;;;;;125.20;57.33;;;14.60;49.20;;;;;;4894704;28;90310;-71
2024/01/10 10:32:56;;;;;;;128.35;58.20;;;14.60;48.90;;;;;;4881611;28;90577;-71
2024/01/10 10:35:22;;;;;;;126.43;57.30;;;14.50;48.50;;;;;;4898637;28;89759;-70
2024/01/10 10:37:52;;;;;;;125.45;57.50;;;14.50;48.70;;;;;;4892755;28;90530;-71
2024/01/10 10:40:19;;;;;;;126.53;58.03;;;14.50;48.50;;;;;;4915123;28;91122;-70
2024/01/10 10:42:46;;;;;;;127.95;58.13;;;14.40;48.50;;;;;;4902883;28;90046;-72
2024/01/10 10:45:19;;;;;;;124.68;57.33;;;14.40;48.30;;;;;;4899847;28;90049;-69
2024/01/10 10:47:49;;;;;;;126.32;57.75;;;14.40;48.40;;;;;;4888865;28;90168;-71
2024/01/10 10:50:22;;;;;;;126.38;57.60;;;14.40;48.90;;;;;;4891072;28;91496;-68
2024/01/10 10:52:49;;;;;;;125.40;57.45;;;14.50;49.20;;;;;;4885435;28;96558;-70
2024/01/10 10:55:18;;;;;;;126.00;57.58;;;14.60;49.20;;;;;;4880890;28;91174;-72
2024/01/10 10:57:46;;;;;;;128.07;57.33;;;14.60;49.20;;;;;;4892483;28;90552;-71
2024/01/10 11:00:15;;;;;;;126.53;57.13;;;14.60;49.20;;;;;;4893564;28;89749;-71
2024/01/10 11:02:41;;;;;;;124.57;57.17;;;14.70;49.60;;;;;;4891743;28;90916;-71
2024/01/10 11:05:09;;;;;;;126.30;58.15;;;14.80;49.90;;;;;;4890099;28;95010;-75
2024/01/10 11:07:45;;;;;;;125.13;57.70;;;14.90;50.00;;;;;;4911578;23;90571;-76
2024/01/10 11:10:27;;;;;;;128.73;58.35;;;15.00;49.80;;;;;;4894400;28;89672;-77
2024/01/10 11:13:03;;;;;;;126.45;57.85;;;15.00;49.50;;;;;;4898550;28;94154;-77
2024/01/10 11:15:50;;;;;;;128.90;57.75;;;15.00;49.60;;;;;;4898530;28;91094;-78
2024/01/10 11:18:18;;;;;;;126.72;57.55;;;15.00;49.60;;;;;;4922482;23;90082;-71
2024/01/10 11:23:28;;;;;;;125.63;57.42;;;15.00;49.30;;;;;;4872518;28;92076;-39
2024/01/10 11:25:53;;;;;;;126.70;57.40;;;14.90;48.90;;;;;;4871371;28;92369;-39
2024/01/10 11:28:20;;;;;;;127.57;57.58;;;14.90;48.80;;;;;;4880536;28;90327;-40
2024/01/10 11:30:53;;;;;;;125.88;57.45;;;15.00;48.80;;;;;;4878822;28;91086;-40
2024/01/10 11:33:25;;;;;;;126.75;57.38;;;15.10;48.50;;;;;;4878003;23;89976;-73
2024/01/10 11:36:09;;;;;;;;;;;15.20;48.10;;;;;;4855431;28;90135;-70
2024/01/10 11:38:50;;;;;;;126.28;57.80;;;15.20;48.30;;;;;;4869206;28;90906;-72
2024/01/10 11:41:36;;;;;;;126.35;57.97;;;15.30;48.60;;;;;;4853319;28;91803;-70
2024/01/10 11:46:48;;;;;;;130.02;57.40;;;15.40;49.00;;;;;;4858507;28;90406;-70
2024/01/10 11:49:17;;;;;;;127.07;57.58;;;15.40;48.50;;;;;;4861237;28;90550;-72
2024/01/10 11:51:44;;;;;;;128.98;57.88;;;15.50;48.50;;;;;;4856598;28;92204;-68
2024/01/10 11:54:10;;;;;;;127.30;58.05;;;15.50;48.00;;;;;;4843131;28;94176;-71
2024/01/10 11:56:42;;;;;;;132.70;58.28;;;15.50;48.50;;;;;;4880388;23;91239;-75
2024/01/10 11:59:13;;;;;;;129.85;58.20;;;15.50;48.30;;;;;;4887483;28;88986;-78
2024/01/10 12:01:40;;;;;;;128.82;59.00;;;15.50;47.90;;;;;;4887229;28;89934;-79
2024/01/10 12:04:07;;;;;;;136.30;58.75;;;15.50;48.10;;;;;;4882090;28;94195;-79
2024/01/10 12:06:36;;;;;;;130.60;58.72;;;15.50;47.80;;;;;;4887911;28;90636;-79
2024/01/10 12:09:08;;;;;;;132.43;58.08;;;15.50;48.10;;;;;;4891401;28;93969;-83
2024/01/10 12:11:34;;;;;;;132.88;58.97;;;15.60;48.20;;;;;;4884634;28;89959;-81
2024/01/10 12:14:01;;;;;;;138.00;59.05;;;15.70;48.00;;;;;;4883609;28;90851;-80
2024/01/10 12:16:27;;;;;;;132.00;59.20;;;15.70;48.60;;;;;;4885167;28;90479;-81
2024/01/10 12:18:52;;;;;;;136.52;59.17;;;15.70;48.00;;;;;;4884400;28;89987;-79
2024/01/10 12:21:18;;;;;;;129.43;59.20;;;15.80;48.30;;;;;;4887031;28;90054;-82